Time;durP1;ratioP1;P1;durP2;ratioP2;P2;SDS_P1;SDS_P2;PMS_P1;PMS_P2;Temp;Humidity;BMP_temperature;BMP_pressure;BME280_temperature;BME280_humidity;BME280_pressure;Samples;Min_cycle;Max_cycle;Signal;HPM_P1;HPM_P2
2022/11/28 00:01:37;;;;;;;3.63;2.42;;;5.90;99.90;;;;;;5054465;28;20037;-64
2022/11/28 00:04:05;;;;;;;3.90;2.63;;;5.90;99.90;;;;;;5036188;28;20500;-64
2022/11/28 00:06:30;;;;;;;8.90;2.78;;;5.90;99.90;;;;;;5054331;28;20396;-64
2022/11/28 00:08:59;;;;;;;5.47;2.70;;;5.90;99.90;;;;;;5036383;28;20037;-64
2022/11/28 00:11:25;;;;;;;4.20;2.20;;;5.90;99.90;;;;;;5054146;28;20459;-65
2022/11/28 00:13:51;;;;;;;2.97;1.83;;;6.00;99.90;;;;;;5054100;28;20447;-64
2022/11/28 00:16:20;;;;;;;3.67;2.30;;;6.00;99.90;;;;;;5053805;28;20041;-65
2022/11/28 00:18:46;;;;;;;4.90;2.55;;;6.00;99.90;;;;;;5036302;28;20476;-65
2022/11/28 00:21:13;;;;;;;4.88;2.72;;;6.00;99.90;;;;;;5053748;28;20029;-64
2022/11/28 00:23:41;;;;;;;4.85;2.53;;;6.00;99.90;;;;;;5054031;28;20040;-64
2022/11/28 00:26:17;;;;;;;5.35;2.47;;;6.40;99.90;;;;;;5054031;28;20037;-64
2022/11/28 00:28:42;;;;;;;4.32;2.50;;;6.00;99.90;;;;;;5054027;28;20036;-64
2022/11/28 00:31:16;;;;;;;5.90;2.35;;;6.00;99.90;;;;;;5053847;28;20032;-64
2022/11/28 00:33:42;;;;;;;3.92;2.30;;;6.30;99.90;;;;;;5036081;28;20507;-64
2022/11/28 00:36:08;;;;;;;3.47;2.10;;;6.00;99.90;;;;;;5053860;28;20037;-64
2022/11/28 00:38:34;;;;;;;3.53;2.40;;;6.10;99.90;;;;;;5053518;28;20044;-64
2022/11/28 00:41:09;;;;;;;3.90;2.70;;;6.10;99.90;;;;;;5035679;28;20198;-64
2022/11/28 00:43:34;;;;;;;5.82;2.75;;;6.10;99.90;;;;;;5035894;28;20049;-64
2022/11/28 00:46:01;;;;;;;5.70;2.40;;;6.10;99.90;;;;;;5053666;28;20047;-64
2022/11/28 00:48:27;;;;;;;4.53;2.70;;;6.20;99.90;;;;;;5053670;28;20479;-64
2022/11/28 00:50:54;;;;;;;5.38;3.00;;;6.10;99.90;;;;;;5053462;28;20044;-64
2022/11/28 00:53:20;;;;;;;5.28;2.40;;;6.10;99.90;;;;;;5053483;28;20437;-64
2022/11/28 00:55:46;;;;;;;4.47;2.45;;;6.20;99.90;;;;;;5053418;28;20069;-64
2022/11/28 00:58:12;;;;;;;4.65;2.60;;;6.20;99.90;;;;;;5053522;28;20087;-64
2022/11/28 01:00:37;;;;;;;4.43;2.50;;;6.10;99.90;;;;;;5053460;28;20037;-64
2022/11/28 01:03:04;;;;;;;4.43;2.80;;;6.10;99.90;;;;;;5053108;28;20546;-64
2022/11/28 01:05:29;;;;;;;6.28;3.15;;;6.10;99.90;;;;;;5053410;28;20041;-64
2022/11/28 01:07:55;;;;;;;3.90;2.25;;;6.20;99.90;;;;;;5053406;28;20036;-64
2022/11/28 01:10:24;;;;;;;3.38;2.20;;;6.20;99.90;;;;;;5053292;28;20128;-64
2022/11/28 01:12:49;;;;;;;4.82;2.47;;;6.20;99.90;;;;;;5053290;28;20060;-64
2022/11/28 01:15:15;;;;;;;5.38;2.72;;;6.20;99.90;;;;;;5052996;28;20475;-64
2022/11/28 01:17:40;;;;;;;3.80;2.72;;;6.80;99.90;;;;;;5053329;28;20083;-64
2022/11/28 01:20:08;;;;;;;4.00;2.25;;;6.10;99.90;;;;;;5053351;28;20071;-64
2022/11/28 01:22:34;;;;;;;3.83;2.53;;;6.20;99.90;;;;;;5035128;28;20045;-64
2022/11/28 01:24:59;;;;;;;4.78;2.70;;;6.20;99.90;;;;;;5055405;28;20044;-64
2022/11/28 01:27:25;;;;;;;4.53;2.83;;;6.20;99.90;;;;;;5057139;28;20400;-64
2022/11/28 01:29:51;;;;;;;5.25;2.85;;;6.40;99.90;;;;;;5057269;28;20047;-64
2022/11/28 01:32:17;;;;;;;5.82;2.63;;;6.20;99.90;;;;;;5057174;28;20543;-64
2022/11/28 01:34:43;;;;;;;4.13;2.75;;;6.30;99.90;;;;;;5057209;28;20033;-64
2022/11/28 01:37:08;;;;;;;3.58;2.70;;;6.20;99.90;;;;;;5057209;28;20395;-64
2022/11/28 01:39:34;;;;;;;4.78;2.42;;;6.20;99.90;;;;;;5057056;28;20037;-65
2022/11/28 01:42:00;;;;;;;6.75;3.03;;;6.20;99.90;;;;;;5057098;28;20121;-64
2022/11/28 01:44:25;;;;;;;4.88;2.92;;;6.20;99.90;;;;;;5056777;28;20480;-64
2022/11/28 01:46:51;;;;;;;6.40;3.17;;;6.20;99.90;;;;;;5057006;28;20094;-64
2022/11/28 01:49:25;;;;;;;5.57;1.92;;;6.20;99.90;;;;;;5056987;28;20084;-64
2022/11/28 01:51:58;;;;;;;3.88;2.55;;;6.30;99.90;;;;;;5056826;28;20415;-64
2022/11/28 01:54:25;;;;;;;4.15;2.38;;;6.60;99.90;;;;;;5056854;28;20033;-64
2022/11/28 01:57:05;;;;;;;4.13;2.97;;;6.30;99.90;;;;;;5056796;28;20068;-64
2022/11/28 01:59:36;;;;;;;4.90;2.50;;;6.20;99.90;;;;;;5038890;28;20404;-64
2022/11/28 02:02:06;;;;;;;5.30;2.55;;;6.20;99.90;;;;;;5056323;28;20045;-64
2022/11/28 02:04:33;;;;;;;5.13;3.03;;;6.30;99.90;;;;;;5056709;28;20119;-64
2022/11/28 02:06:58;;;;;;;4.78;2.85;;;6.50;99.90;;;;;;5056633;28;20086;-65
2022/11/28 02:09:24;;;;;;;7.13;3.05;;;6.20;99.90;;;;;;5056232;28;20041;-65
2022/11/28 02:12:09;;;;;;;5.90;2.67;;;6.30;99.90;;;;;;5056484;28;20049;-65
2022/11/28 02:15:02;;;;;;;4.78;2.60;;;6.20;99.90;;;;;;5056443;28;20472;-64
2022/11/28 02:17:40;;;;;;;4.18;3.05;;;6.20;99.90;;;;;;5056498;28;20045;-64
2022/11/28 02:20:31;;;;;;;4.13;2.72;;;6.20;99.90;;;;;;5056186;28;20048;-64
2022/11/28 02:23:06;;;;;;;6.93;3.57;;;6.20;99.90;;;;;;5056443;28;20068;-64
2022/11/28 02:25:35;;;;;;;5.32;2.83;;;6.20;99.90;;;;;;5056296;28;20287;-64
2022/11/28 02:28:15;;;;;;;6.88;2.95;;;6.20;99.90;;;;;;5038044;28;20088;-64
2022/11/28 02:31:10;;;;;;;5.10;3.20;;;6.20;99.90;;;;;;5055894;28;20128;-64
2022/11/28 02:33:50;;;;;;;6.18;2.58;;;6.30;99.90;;;;;;5047007;28;20087;-64
2022/11/28 02:36:56;;;;;;;4.10;2.53;;;6.40;99.90;;;;;;5054728;28;20041;-65
2022/11/28 02:39:27;;;;;;;4.43;2.53;;;6.20;99.90;;;;;;5037898;28;20048;-65
2022/11/28 02:41:56;;;;;;;;;;;6.70;99.90;;;;;;5056432;28;20037;-64
2022/11/28 02:44:36;;;;;;;7.20;3.28;;;6.00;99.90;;;;;;5055899;28;20303;-64
2022/11/28 02:47:10;;;;;;;6.47;2.90;;;6.20;99.90;;;;;;5055895;28;20041;-65
2022/11/28 02:49:46;;;;;;;5.70;3.35;;;6.30;99.90;;;;;;5037760;28;20040;-64
2022/11/28 02:52:17;;;;;;;7.97;2.53;;;6.30;99.90;;;;;;5055722;28;20052;-64
2022/11/28 02:54:44;;;;;;;5.03;3.33;;;6.30;99.90;;;;;;5055783;28;20041;-64
2022/11/28 02:57:10;;;;;;;6.93;3.47;;;6.40;99.90;;;;;;5055450;28;20040;-64
2022/11/28 02:59:35;;;;;;;4.78;3.33;;;6.30;99.90;;;;;;5055316;28;20036;-65
2022/11/28 03:02:03;;;;;;;3.78;2.75;;;6.40;99.90;;;;;;5056095;28;20041;-65
2022/11/28 03:04:50;;;;;;;4.32;2.80;;;6.30;99.90;;;;;;5037355;28;20057;-65
2022/11/28 03:07:43;;;;;;;6.43;3.47;;;6.40;99.90;;;;;;5055227;28;20183;-64
2022/11/28 03:10:47;;;;;;;6.43;3.47;;;6.30;99.90;;;;;;5055521;28;20044;-64
2022/11/28 03:13:30;;;;;;;6.97;3.63;;;6.40;99.90;;;;;;5037271;28;20044;-65
2022/11/28 03:16:11;;;;;;;8.20;3.03;;;6.30;99.90;;;;;;5055411;28;20040;-65
2022/11/28 03:19:10;;;;;;;5.70;3.83;;;6.40;99.90;;;;;;5055313;28;20095;-65
2022/11/28 03:21:49;;;;;;;4.45;2.80;;;6.30;99.90;;;;;;5054972;28;20053;-64
2022/11/28 03:24:24;;;;;;;4.43;3.08;;;6.40;99.90;;;;;;5054880;28;20048;-65
2022/11/28 03:26:56;;;;;;;4.07;2.90;;;6.40;99.90;;;;;;5055200;28;20059;-65
2022/11/28 03:29:36;;;;;;;6.85;4.00;;;6.40;99.90;;;;;;5055103;28;20036;-65
2022/11/28 03:32:12;;;;;;;4.22;2.83;;;6.40;99.90;;;;;;5054937;28;20052;-65
2022/11/28 03:34:43;;;;;;;5.47;3.58;;;6.40;99.90;;;;;;5054965;28;20182;-64
2022/11/28 03:37:20;;;;;;;9.27;4.53;;;6.40;99.90;;;;;;5054683;28;20115;-65
2022/11/28 03:39:52;;;;;;;7.00;3.97;;;6.60;99.90;;;;;;5054662;28;20400;-65
2022/11/28 03:42:28;;;;;;;4.70;3.13;;;6.40;99.90;;;;;;5054850;28;20492;-65
2022/11/28 03:45:21;;;;;;;3.35;2.90;;;6.50;99.90;;;;;;5054764;28;20079;-64
2022/11/28 03:47:52;;;;;;;4.18;2.88;;;6.50;99.90;;;;;;5036054;28;20041;-64
2022/11/28 03:50:21;;;;;;;6.40;3.55;;;6.60;99.90;;;;;;5054688;28;20040;-65
2022/11/28 03:52:58;;;;;;;8.15;3.03;;;6.90;99.90;;;;;;5054589;28;20037;-64
2022/11/28 03:55:43;;;;;;;6.38;3.50;;;6.50;99.90;;;;;;5054536;28;20392;-64
2022/11/28 03:58:09;;;;;;;6.50;3.55;;;6.50;99.90;;;;;;5054560;28;20524;-64
2022/11/28 04:00:44;;;;;;;6.78;3.35;;;6.60;99.90;;;;;;5054477;28;20099;-65
2022/11/28 04:03:21;;;;;;;8.43;3.88;;;6.60;99.90;;;;;;5054120;28;20049;-64
2022/11/28 04:06:13;;;;;;;8.35;3.97;;;6.60;99.90;;;;;;5054287;28;20186;-65
2022/11/28 04:08:43;;;;;;;5.93;3.22;;;6.60;99.90;;;;;;5054053;28;20116;-64
2022/11/28 04:11:15;;;;;;;6.90;3.88;;;6.60;99.90;;;;;;5054260;28;20527;-65
2022/11/28 04:13:56;;;;;;;7.05;4.15;;;6.70;99.90;;;;;;5036048;28;20081;-65
2022/11/28 04:16:36;;;;;;;6.47;3.80;;;6.70;99.90;;;;;;5054233;28;20392;-65
2022/11/28 04:19:08;;;;;;;4.70;3.28;;;6.70;99.90;;;;;;5054136;28;20041;-65
2022/11/28 04:21:55;;;;;;;6.40;4.15;;;6.70;99.90;;;;;;5036206;28;20488;-65
2022/11/28 04:24:27;;;;;;;6.45;4.75;;;6.80;99.90;;;;;;5054030;28;20518;-65
2022/11/28 04:27:03;;;;;;;8.15;4.22;;;7.20;99.90;;;;;;5054000;28;20091;-64
2022/11/28 04:29:35;;;;;;;5.97;3.90;;;6.80;99.90;;;;;;5054028;28;20112;-64
2022/11/28 04:32:04;;;;;;;6.60;4.53;;;6.80;99.90;;;;;;5053926;28;20048;-65
2022/11/28 04:34:33;;;;;;;8.73;4.28;;;6.80;99.90;;;;;;5054035;28;20044;-65
2022/11/28 04:37:01;;;;;;;9.05;4.30;;;6.80;99.90;;;;;;5035929;28;20036;-65
2022/11/28 04:39:28;;;;;;;6.72;4.55;;;6.80;99.90;;;;;;5053842;28;20041;-65
2022/11/28 04:42:09;;;;;;;8.52;4.75;;;7.30;99.90;;;;;;5035998;28;20037;-64
2022/11/28 04:44:56;;;;;;;6.75;4.47;;;6.90;99.90;;;;;;5053745;28;20116;-64
2022/11/28 04:47:23;;;;;;;9.63;4.15;;;6.90;99.90;;;;;;5053672;28;20045;-64
2022/11/28 04:49:49;;;;;;;7.55;4.82;;;6.90;99.90;;;;;;5053653;28;20138;-64
2022/11/28 04:52:34;;;;;;;8.35;4.82;;;7.00;99.90;;;;;;5053493;28;20483;-64
2022/11/28 04:55:32;;;;;;;6.85;4.88;;;7.00;99.90;;;;;;5053554;28;20090;-65
2022/11/28 04:58:21;;;;;;;8.60;4.65;;;7.00;99.90;;;;;;5052973;28;20041;-64
2022/11/28 05:00:48;;;;;;;7.55;4.90;;;7.00;99.90;;;;;;5053140;28;20071;-64
2022/11/28 05:03:14;;;;;;;7.50;5.25;;;7.10;99.90;;;;;;5053188;28;20057;-64
2022/11/28 05:05:47;;;;;;;9.82;5.80;;;7.10;99.90;;;;;;5035452;28;20404;-65
2022/11/28 05:08:13;;;;;;;10.93;6.50;;;7.10;99.90;;;;;;5053383;28;20098;-64
2022/11/28 05:10:39;;;;;;;8.18;5.07;;;7.10;99.90;;;;;;5053398;28;20057;-64
2022/11/28 05:13:05;;;;;;;11.02;6.47;;;7.20;99.90;;;;;;5053215;28;20047;-64
2022/11/28 05:15:31;;;;;;;8.32;5.90;;;7.20;99.90;;;;;;5035240;28;20053;-64
2022/11/28 05:17:56;;;;;;;9.25;5.82;;;7.70;99.90;;;;;;5053021;28;20123;-64
2022/11/28 05:20:22;;;;;;;8.52;5.82;;;7.20;99.90;;;;;;5052946;28;20468;-65
2022/11/28 05:22:48;;;;;;;9.18;6.68;;;7.20;99.90;;;;;;5052873;28;20044;-64
2022/11/28 05:25:13;;;;;;;9.48;5.85;;;7.30;99.90;;;;;;5052896;28;20037;-65
2022/11/28 05:27:39;;;;;;;10.43;5.80;;;7.20;99.90;;;;;;5035408;28;20045;-64
2022/11/28 05:30:06;;;;;;;9.27;6.25;;;7.30;99.90;;;;;;5053143;28;20037;-64
2022/11/28 05:32:32;;;;;;;9.55;6.57;;;7.30;99.90;;;;;;5053001;28;20064;-64
2022/11/28 05:34:57;;;;;;;12.90;6.80;;;7.40;99.90;;;;;;5053148;28;20037;-65
2022/11/28 05:37:24;;;;;;;9.25;6.28;;;7.30;99.90;;;;;;5053128;28;20438;-64
2022/11/28 05:39:50;;;;;;;9.25;6.65;;;7.30;99.90;;;;;;5035281;28;20120;-64
2022/11/28 05:42:16;;;;;;;9.93;6.00;;;7.40;99.90;;;;;;5053085;28;20107;-64
2022/11/28 05:44:42;;;;;;;11.13;5.65;;;7.40;99.90;;;;;;5052758;28;20045;-64
2022/11/28 05:47:07;;;;;;;14.45;6.25;;;7.40;99.90;;;;;;5053039;28;20036;-64
2022/11/28 05:49:33;;;;;;;9.90;6.28;;;7.40;99.90;;;;;;5052966;28;20048;-64
2022/11/28 05:51:59;;;;;;;7.07;5.90;;;7.40;99.90;;;;;;5052947;28;20548;-64
2022/11/28 05:54:25;;;;;;;9.07;6.53;;;7.40;99.90;;;;;;5052676;28;20041;-64
2022/11/28 05:56:51;;;;;;;9.77;6.15;;;7.40;99.90;;;;;;5034792;28;20067;-64
2022/11/28 05:59:16;;;;;;;10.65;6.20;;;7.40;99.90;;;;;;5052917;28;20025;-65
2022/11/28 06:01:42;;;;;;;10.88;7.18;;;7.40;99.90;;;;;;5052864;28;20041;-64
2022/11/28 06:04:08;;;;;;;11.77;6.70;;;7.40;99.90;;;;;;5052442;28;20411;-64
2022/11/28 06:06:34;;;;;;;10.15;6.72;;;7.40;99.90;;;;;;5052793;28;20049;-64
2022/11/28 06:09:01;;;;;;;10.13;7.03;;;7.40;99.90;;;;;;5052740;28;20040;-65
2022/11/28 06:11:29;;;;;;;10.27;6.47;;;7.50;99.90;;;;;;5055125;28;20037;-64
2022/11/28 06:13:55;;;;;;;8.90;5.70;;;7.70;99.90;;;;;;5038523;28;20041;-66
2022/11/28 06:16:26;;;;;;;10.27;7.15;;;7.40;99.90;;;;;;5056119;28;20098;-64
2022/11/28 06:18:53;;;;;;;10.77;6.40;;;7.50;99.90;;;;;;5056152;28;20033;-64
2022/11/28 06:21:19;;;;;;;10.88;6.78;;;7.50;99.90;;;;;;5056100;28;20098;-64
2022/11/28 06:23:45;;;;;;;12.43;7.13;;;8.00;99.90;;;;;;5056370;28;20033;-64
2022/11/28 06:26:14;;;;;;;12.38;6.25;;;7.50;99.90;;;;;;5055954;28;20064;-64
2022/11/28 06:28:41;;;;;;;10.82;7.03;;;7.50;99.90;;;;;;5055982;28;20131;-64
2022/11/28 06:31:11;;;;;;;12.77;6.53;;;7.60;99.90;;;;;;5056251;28;20036;-64
2022/11/28 06:33:37;;;;;;;9.05;5.55;;;7.50;99.90;;;;;;5056110;28;20434;-62
2022/11/28 06:36:04;;;;;;;10.50;7.63;;;7.60;99.90;;;;;;5037979;28;20036;-64
2022/11/28 06:38:31;;;;;;;11.57;6.75;;;7.60;99.90;;;;;;5038148;28;20511;-65
2022/11/28 06:40:58;;;;;;;13.63;6.53;;;7.60;99.90;;;;;;5038051;28;20116;-63
2022/11/28 06:43:23;;;;;;;11.68;7.80;;;7.50;99.90;;;;;;5056001;28;20072;-63
2022/11/28 06:45:49;;;;;;;7.15;6.10;;;7.60;99.90;;;;;;5055975;28;20037;-63
2022/11/28 06:48:15;;;;;;;12.38;6.93;;;7.50;99.90;;;;;;5055624;28;20106;-63
2022/11/28 06:50:41;;;;;;;12.18;6.85;;;7.90;99.90;;;;;;5055819;28;20044;-64
2022/11/28 06:53:06;;;;;;;10.90;6.45;;;7.60;99.90;;;;;;5037621;28;20517;-65
2022/11/28 06:55:32;;;;;;;10.70;5.97;;;7.50;99.90;;;;;;5055711;28;20607;-64
2022/11/28 06:57:58;;;;;;;10.20;6.40;;;7.60;99.90;;;;;;5055668;28;20060;-63
2022/11/28 07:00:24;;;;;;;11.02;6.00;;;8.40;99.90;;;;;;5055606;28;20391;-64
2022/11/28 07:02:49;;;;;;;10.40;6.10;;;7.60;99.90;;;;;;5055311;28;20060;-63
2022/11/28 07:05:15;;;;;;;9.38;5.95;;;7.60;99.90;;;;;;5055502;28;20041;-64
2022/11/28 07:07:42;;;;;;;12.38;6.95;;;7.50;99.90;;;;;;5037638;28;20491;-64
2022/11/28 07:10:08;;;;;;;8.73;6.25;;;7.60;99.90;;;;;;5037721;28;20041;-63
2022/11/28 07:12:34;;;;;;;9.48;5.88;;;7.50;99.90;;;;;;5055332;28;20055;-64
2022/11/28 07:14:59;;;;;;;8.88;5.78;;;7.60;99.90;;;;;;5055215;28;20464;-64
2022/11/28 07:17:25;;;;;;;8.38;5.30;;;7.60;99.90;;;;;;5037212;28;20041;-64
2022/11/28 07:19:51;;;;;;;8.63;6.10;;;7.60;99.90;;;;;;5054982;28;20072;-64
2022/11/28 07:22:17;;;;;;;8.38;5.55;;;7.60;99.90;;;;;;5054455;28;20036;-65
2022/11/28 07:24:42;;;;;;;7.07;4.80;;;7.50;99.90;;;;;;5055142;28;20455;-65
2022/11/28 07:27:08;;;;;;;7.43;4.97;;;7.70;99.90;;;;;;5054866;28;20032;-65
2022/11/28 07:29:37;;;;;;;7.90;5.05;;;7.60;99.90;;;;;;5055079;28;20059;-64
2022/11/28 07:32:06;;;;;;;10.35;5.68;;;7.60;99.90;;;;;;5054989;28;20049;-64
2022/11/28 07:34:32;;;;;;;7.38;5.15;;;7.60;99.90;;;;;;5037074;28;20052;-64
2022/11/28 07:36:58;;;;;;;6.20;4.85;;;7.60;99.90;;;;;;5054643;28;20041;-64
2022/11/28 07:39:24;;;;;;;7.18;5.03;;;7.60;99.90;;;;;;5054697;28;20040;-64
2022/11/28 07:41:50;;;;;;;7.53;5.30;;;7.60;99.90;;;;;;5054565;28;20051;-64
2022/11/28 07:44:16;;;;;;;8.68;5.28;;;7.50;99.90;;;;;;5054670;28;20045;-64
2022/11/28 07:46:43;;;;;;;9.35;5.38;;;7.60;99.90;;;;;;5054695;28;20041;-63
2022/11/28 07:49:10;;;;;;;9.88;4.85;;;7.60;99.90;;;;;;5054628;28;20045;-65
2022/11/28 07:51:35;;;;;;;5.38;4.70;;;7.60;99.90;;;;;;5036351;28;20171;-64
2022/11/28 07:54:03;;;;;;;13.27;4.93;;;7.60;99.90;;;;;;5054441;28;20175;-64
2022/11/28 07:56:31;;;;;;;8.32;5.13;;;7.60;99.90;;;;;;5054445;28;20037;-64
2022/11/28 07:58:58;;;;;;;7.43;4.65;;;8.00;99.90;;;;;;5036397;28;20212;-64
2022/11/28 08:01:27;;;;;;;5.25;4.07;;;7.60;99.90;;;;;;5054334;28;20535;-64
2022/11/28 08:03:53;;;;;;;7.55;4.65;;;7.60;99.90;;;;;;5053781;28;20049;-64
2022/11/28 08:06:23;;;;;;;7.55;4.85;;;7.60;99.90;;;;;;5053821;28;20138;-65
2022/11/28 08:08:49;;;;;;;6.28;4.10;;;7.60;99.90;;;;;;5054226;28;20029;-64
2022/11/28 08:11:16;;;;;;;5.53;3.75;;;7.60;99.90;;;;;;5054158;28;20037;-65
2022/11/28 08:13:43;;;;;;;7.95;4.20;;;7.60;99.90;;;;;;5054180;28;20383;-64
2022/11/28 08:16:17;;;;;;;7.30;3.47;;;7.60;99.90;;;;;;5053804;28;20037;-64
2022/11/28 08:18:43;;;;;;;6.05;3.95;;;7.60;99.90;;;;;;5054149;28;20044;-64
2022/11/28 08:21:11;;;;;;;5.55;3.95;;;7.60;99.90;;;;;;5054046;28;20391;-64
2022/11/28 08:23:38;;;;;;;5.68;4.25;;;7.60;99.90;;;;;;5053951;28;20120;-65
2022/11/28 08:26:08;;;;;;;5.50;3.53;;;7.60;99.90;;;;;;5035851;28;20098;-64
2022/11/28 08:28:34;;;;;;;7.47;4.07;;;7.60;99.90;;;;;;5036273;28;20522;-64
2022/11/28 08:31:11;;;;;;;7.47;3.58;;;7.60;99.90;;;;;;5053532;28;20045;-64
2022/11/28 08:33:37;;;;;;;4.55;3.33;;;7.60;99.90;;;;;;5053804;28;20047;-64
2022/11/28 08:36:07;;;;;;;5.90;3.60;;;7.70;99.90;;;;;;5053646;28;20048;-64
2022/11/28 08:38:33;;;;;;;6.50;4.13;;;7.70;99.90;;;;;;5053757;28;20033;-64
2022/11/28 08:41:04;;;;;;;3.53;3.08;;;7.70;99.90;;;;;;5053833;28;20522;-64
2022/11/28 08:43:30;;;;;;;;;;;7.70;99.90;;;;;;5054163;28;20056;-64
2022/11/28 08:45:55;;;;;;;4.97;3.13;;;7.70;99.90;;;;;;5053748;28;20291;-64
2022/11/28 08:48:21;;;;;;;5.43;3.60;;;7.70;99.90;;;;;;5053701;28;20037;-65
2022/11/28 08:50:48;;;;;;;5.47;3.47;;;7.70;99.90;;;;;;5053694;28;20044;-64
2022/11/28 08:53:14;;;;;;;6.07;3.72;;;7.70;99.90;;;;;;5052727;28;20049;-64
2022/11/28 08:55:43;;;;;;;5.47;3.58;;;7.70;99.90;;;;;;5052453;28;20533;-65
2022/11/28 08:58:13;;;;;;;6.03;3.35;;;7.70;99.90;;;;;;5052317;28;20041;-65
2022/11/28 09:00:41;;;;;;;4.82;3.40;;;7.70;99.90;;;;;;5052626;28;20510;-65
2022/11/28 09:03:07;;;;;;;5.63;3.75;;;7.70;99.90;;;;;;5052567;28;20444;-65
2022/11/28 09:05:32;;;;;;;5.30;3.42;;;7.70;99.90;;;;;;5034185;28;20083;-64
2022/11/28 09:07:58;;;;;;;3.63;2.60;;;7.70;99.90;;;;;;5052531;28;20052;-64
2022/11/28 09:10:24;;;;;;;5.47;2.85;;;7.70;99.90;;;;;;5017884;28;20052;-64
2022/11/28 09:12:50;;;;;;;6.07;3.40;;;7.70;99.90;;;;;;5052348;28;20530;-64
2022/11/28 09:15:17;;;;;;;6.20;3.65;;;7.70;99.90;;;;;;5052371;28;20055;-65
2022/11/28 09:17:44;;;;;;;4.20;2.83;;;7.70;99.90;;;;;;5052358;28;20392;-64
2022/11/28 09:20:10;;;;;;;6.82;2.95;;;7.80;99.90;;;;;;5052423;28;20041;-64
2022/11/28 09:22:36;;;;;;;4.65;2.70;;;7.80;99.90;;;;;;5052057;28;20093;-64
2022/11/28 09:25:01;;;;;;;8.30;3.25;;;7.80;99.90;;;;;;5052303;28;20045;-64
2022/11/28 09:27:27;;;;;;;6.47;3.28;;;7.80;99.90;;;;;;5052027;28;20041;-64
2022/11/28 09:29:53;;;;;;;5.03;3.38;;;7.80;99.90;;;;;;5052225;28;20064;-64
2022/11/28 09:32:18;;;;;;;6.57;3.90;;;7.80;99.90;;;;;;5052202;28;20586;-64
2022/11/28 09:34:44;;;;;;;6.72;3.20;;;7.80;99.90;;;;;;5052243;28;20518;-64
2022/11/28 09:37:10;;;;;;;4.22;2.42;;;7.80;99.90;;;;;;5051915;28;20045;-65
2022/11/28 09:39:35;;;;;;;5.05;2.88;;;7.80;99.90;;;;;;5052132;28;20041;-64
2022/11/28 09:42:01;;;;;;;9.13;3.53;;;7.80;99.90;;;;;;5034379;28;20423;-64
2022/11/28 09:44:59;;;;;;;5.18;2.75;;;7.80;99.90;;;;;;5052173;28;20087;-64
2022/11/28 09:47:29;;;;;;;7.40;3.67;;;7.80;99.90;;;;;;5047793;28;20057;-64
2022/11/28 09:50:02;;;;;;;4.32;2.80;;;7.90;99.90;;;;;;5056108;28;20468;-63
2022/11/28 09:52:31;;;;;;;4.28;2.42;;;7.80;99.90;;;;;;5038149;28;20045;-65
2022/11/28 09:55:15;;;;;;;5.75;3.10;;;7.80;99.90;;;;;;5055772;28;20041;-64
2022/11/28 09:57:49;;;;;;;6.25;2.65;;;7.80;99.90;;;;;;5055625;28;20040;-64
2022/11/28 10:00:20;;;;;;;5.50;2.78;;;7.80;99.90;;;;;;5037704;28;20079;-64
2022/11/28 10:03:15;;;;;;;4.43;2.65;;;7.80;99.90;;;;;;5055797;28;20045;-64
2022/11/28 10:05:46;;;;;;;3.25;2.15;;;7.90;99.90;;;;;;5055494;28;20065;-65
2022/11/28 10:08:24;;;;;;;3.45;2.80;;;7.90;99.90;;;;;;5037550;28;20064;-64
2022/11/28 10:10:59;;;;;;;4.18;2.70;;;7.90;99.90;;;;;;5055716;28;20051;-64
2022/11/28 10:13:45;;;;;;;3.67;2.67;;;7.90;99.90;;;;;;5037435;28;20049;-64
2022/11/28 10:16:29;;;;;;;5.60;3.15;;;7.90;99.90;;;;;;5037442;28;20080;-64
2022/11/28 10:19:09;;;;;;;3.83;2.47;;;7.90;99.90;;;;;;5037562;28;20045;-64
2022/11/28 10:21:41;;;;;;;4.88;3.08;;;7.90;99.90;;;;;;5055101;28;20033;-64
2022/11/28 10:24:21;;;;;;;5.30;2.80;;;7.90;99.90;;;;;;5037329;28;20111;-64
2022/11/28 10:26:57;;;;;;;4.57;3.22;;;7.90;99.90;;;;;;5055155;28;20076;-64
2022/11/28 10:29:41;;;;;;;4.78;3.28;;;8.20;99.90;;;;;;5055320;28;20037;-65
2022/11/28 10:32:13;;;;;;;6.03;3.28;;;8.00;99.90;;;;;;5055260;28;20080;-64
2022/11/28 10:34:59;;;;;;;5.63;3.58;;;8.00;99.90;;;;;;5055246;28;20045;-64
2022/11/28 10:37:30;;;;;;;4.65;3.20;;;8.00;99.90;;;;;;5055208;28;20044;-64
2022/11/28 10:40:01;;;;;;;;;;;8.00;99.90;;;;;;5055533;28;20037;-64
2022/11/28 10:42:56;;;;;;;4.40;2.80;;;8.00;99.90;;;;;;5036916;28;19967;-64
2022/11/28 10:45:28;;;;;;;6.05;3.38;;;8.00;99.90;;;;;;5045933;28;20110;-64
2022/11/28 10:48:20;;;;;;;4.22;2.45;;;8.00;99.90;;;;;;5055329;28;20045;-64
2022/11/28 10:51:19;;;;;;;4.78;2.95;;;8.10;99.90;;;;;;5054721;28;20208;-64
2022/11/28 10:54:03;;;;;;;5.22;3.20;;;8.10;99.90;;;;;;5054798;28;20052;-64
2022/11/28 10:56:52;;;;;;;5.28;3.10;;;8.00;99.90;;;;;;5053916;28;20033;-64
2022/11/28 10:59:50;;;;;;;4.90;3.05;;;8.00;99.90;;;;;;5053705;28;20049;-64
2022/11/28 11:02:34;;;;;;;8.75;3.45;;;7.90;99.90;;;;;;5031554;28;20079;-64
2022/11/28 11:05:00;;;;;;;4.95;3.58;;;8.10;99.90;;;;;;5036388;28;20149;-64
2022/11/28 11:07:31;;;;;;;4.63;3.17;;;8.40;99.90;;;;;;5054672;28;20078;-64
2022/11/28 11:10:12;;;;;;;4.97;2.83;;;8.10;99.90;;;;;;5036803;28;20463;-64
2022/11/28 11:12:38;;;;;;;4.90;3.53;;;8.10;99.90;;;;;;5054463;28;20041;-64
2022/11/28 11:15:23;;;;;;;7.20;3.90;;;8.10;99.90;;;;;;5054765;28;20452;-64
2022/11/28 11:17:49;;;;;;;4.38;3.40;;;8.10;99.90;;;;;;5054407;28;20041;-64
2022/11/28 11:20:35;;;;;;;4.72;2.92;;;8.20;99.90;;;;;;5036446;28;20041;-65
2022/11/28 11:23:18;;;;;;;5.53;2.85;;;8.10;99.90;;;;;;5054288;28;20047;-64
2022/11/28 11:25:49;;;;;;;5.13;3.50;;;8.10;99.90;;;;;;5054279;28;20049;-64
2022/11/28 11:28:38;;;;;;;4.32;3.40;;;8.10;99.90;;;;;;5054264;28;20052;-63
2022/11/28 11:31:14;;;;;;;5.03;3.13;;;8.40;99.90;;;;;;5053835;28;20040;-64
2022/11/28 11:33:40;;;;;;;4.30;2.90;;;8.00;99.90;;;;;;5054179;28;20072;-64
2022/11/28 11:36:22;;;;;;;5.40;3.13;;;8.10;99.90;;;;;;5053761;28;20028;-64
2022/11/28 11:38:47;;;;;;;3.90;2.60;;;8.30;99.90;;;;;;5054041;28;20507;-64
2022/11/28 11:41:29;;;;;;;5.38;2.95;;;8.10;99.90;;;;;;5053955;28;20037;-64
2022/11/28 11:44:16;;;;;;;6.40;3.47;;;8.20;99.90;;;;;;5053999;28;20112;-64
2022/11/28 11:47:13;;;;;;;5.80;3.60;;;8.20;99.90;;;;;;5053409;28;20037;-64
2022/11/28 11:49:43;;;;;;;4.47;3.22;;;8.20;99.90;;;;;;5053891;28;20041;-63
2022/11/28 11:52:11;;;;;;;4.32;3.28;;;8.20;99.90;;;;;;5053972;28;20476;-63
2022/11/28 11:55:10;;;;;;;4.95;3.22;;;8.20;99.90;;;;;;5053477;28;20099;-63
2022/11/28 11:57:45;;;;;;;5.45;3.67;;;8.20;99.90;;;;;;5053245;28;20040;-63
2022/11/28 12:00:15;;;;;;;4.93;3.30;;;8.20;99.90;;;;;;5053367;28;20049;-65
2022/11/28 12:02:56;;;;;;;5.43;3.27;;;8.20;99.90;;;;;;5053629;28;20052;-63
2022/11/28 12:05:55;;;;;;;5.95;3.65;;;8.20;99.90;;;;;;5053251;28;20318;-65
2022/11/28 12:08:58;;;;;;;5.90;4.25;;;8.20;99.90;;;;;;5049963;28;20057;-65
2022/11/28 12:11:37;;;;;;;6.22;3.67;;;8.20;99.90;;;;;;5052728;28;20088;-65
2022/11/28 12:14:22;;;;;;;5.53;3.40;;;8.10;99.90;;;;;;5053070;28;20041;-63
2022/11/28 12:17:15;;;;;;;5.07;3.28;;;8.20;99.90;;;;;;5053019;28;20037;-64
2022/11/28 12:19:56;;;;;;;4.47;3.00;;;8.20;99.90;;;;;;5053300;28;20124;-65
2022/11/28 12:22:34;;;;;;;4.78;3.40;;;8.20;99.90;;;;;;5052890;28;20044;-64
2022/11/28 12:25:17;;;;;;;4.88;3.40;;;8.10;99.90;;;;;;5052944;28;20051;-65
2022/11/28 12:28:29;;;;;;;5.32;3.47;;;8.30;99.90;;;;;;5053128;28;20037;-64
2022/11/28 12:31:04;;;;;;;4.63;3.60;;;8.30;99.90;;;;;;5033812;28;20057;-64
2022/11/28 12:33:38;;;;;;;4.97;3.67;;;8.20;99.90;;;;;;5052922;28;20392;-64
2022/11/28 12:36:18;;;;;;;4.85;3.28;;;8.20;99.90;;;;;;5052973;28;20044;-64
2022/11/28 12:38:57;;;;;;;4.20;3.03;;;8.30;99.90;;;;;;5052595;28;20041;-64
2022/11/28 12:41:46;;;;;;;7.70;3.60;;;8.30;99.90;;;;;;5034705;28;20279;-64
2022/11/28 12:44:20;;;;;;;4.95;3.28;;;8.30;99.90;;;;;;5052870;28;20080;-64
2022/11/28 12:47:05;;;;;;;5.35;3.13;;;8.30;99.90;;;;;;5052807;28;20041;-64
2022/11/28 12:49:39;;;;;;;5.93;3.03;;;8.30;99.90;;;;;;5052810;28;20052;-64
2022/11/28 12:52:16;;;;;;;6.15;3.55;;;8.30;99.90;;;;;;5052571;28;20041;-64
2022/11/28 12:55:16;;;;;;;5.28;3.00;;;8.30;99.90;;;;;;5052659;28;20040;-64
2022/11/28 12:57:46;;;;;;;5.13;3.28;;;8.10;99.90;;;;;;5052299;28;20036;-65
2022/11/28 13:00:19;;;;;;;6.15;3.15;;;8.40;99.90;;;;;;5052619;28;20472;-65
2022/11/28 13:02:54;;;;;;;4.25;2.85;;;8.30;99.90;;;;;;5052538;28;20076;-64
2022/11/28 13:05:26;;;;;;;4.85;2.90;;;8.30;99.90;;;;;;5052049;28;20118;-64
2022/11/28 13:07:57;;;;;;;5.00;2.85;;;8.30;99.90;;;;;;5052528;28;20052;-64
2022/11/28 13:10:38;;;;;;;5.43;3.83;;;8.30;99.90;;;;;;5052483;28;20037;-64
2022/11/28 13:13:21;;;;;;;4.75;2.80;;;8.30;99.90;;;;;;5052381;28;20131;-64
2022/11/28 13:15:56;;;;;;;4.90;3.28;;;8.30;99.90;;;;;;5052430;28;20049;-64
2022/11/28 13:18:35;;;;;;;4.63;3.42;;;8.30;99.90;;;;;;5034576;28;20047;-64
2022/11/28 13:21:24;;;;;;;4.90;2.95;;;8.30;99.90;;;;;;5051331;28;20033;-65
2022/11/28 13:24:34;;;;;;;4.20;2.92;;;8.30;99.90;;;;;;5031671;28;20052;-64
2022/11/28 13:27:32;;;;;;;4.07;2.60;;;8.30;99.90;;;;;;5052085;28;20045;-64